createdAt,value
2018-05-21T00:00:51.639Z,90.88
2018-05-21T00:02:00.284Z,90.5
2018-05-21T00:03:08.929Z,89.54
2018-05-21T00:04:17.570Z,89.59
2018-05-21T00:05:26.493Z,89.83
2018-05-21T00:06:35.140Z,90.4
2018-05-21T00:07:43.786Z,90.5
2018-05-21T00:08:52.427Z,90.59
2018-05-21T00:10:01.071Z,90.07
2018-05-21T00:11:09.715Z,90.21
2018-05-21T00:12:18.361Z,90.5
2018-05-21T00:13:27.008Z,90.88
2018-05-21T00:14:35.655Z,90.83
2018-05-21T00:15:44.297Z,91.45
2018-05-21T00:16:52.943Z,91.41
2018-05-21T00:18:01.856Z,91.5
2018-05-21T00:19:10.495Z,91.41
2018-05-21T00:20:19.141Z,90.73
2018-05-21T00:21:28.049Z,91.02
2018-05-21T00:22:36.696Z,90.45
2018-05-21T00:23:45.335Z,91.21
2018-05-21T00:24:53.982Z,91.12
2018-05-21T00:26:02.623Z,91.41
2018-05-21T00:27:11.271Z,91.41
2018-05-21T00:28:19.915Z,91.98
2018-05-21T00:29:28.559Z,91.98
2018-05-21T00:30:37.202Z,92.36
2018-05-21T00:31:45.841Z,92.65
2018-05-21T00:32:54.492Z,92.55
2018-05-21T00:34:03.396Z,93.51
2018-05-21T00:35:12.039Z,93.51
2018-05-21T00:36:20.679Z,93.7
2018-05-21T00:37:29.328Z,94.46
2018-05-21T00:38:37.973Z,94.17
2018-05-21T00:39:46.616Z,93.98
2018-05-21T00:40:55.540Z,94.17
2018-05-21T00:42:04.168Z,93.79
2018-05-21T00:43:12.812Z,94.27
2018-05-21T00:44:21.449Z,94.17
2018-05-21T00:45:30.087Z,94.17
2018-05-21T00:46:38.732Z,93.7
2018-05-21T00:47:47.373Z,93.7
2018-05-21T00:48:56.018Z,94.17
2018-05-21T00:50:04.668Z,93.98
2018-05-21T00:51:13.567Z,94.84
2018-05-21T00:52:22.475Z,94.36
2018-05-21T00:53:31.119Z,94.84
2018-05-21T00:54:39.768Z,94.93
2018-05-21T00:55:48.408Z,94.74
2018-05-21T00:56:57.318Z,95.7
2018-05-21T00:58:06.230Z,95.84
2018-05-21T00:59:14.884Z,96.46
2018-05-21T01:00:23.524Z,95.94
2018-05-21T01:01:32.165Z,95.98
2018-05-21T01:02:41.074Z,95.65
2018-05-21T01:03:49.721Z,95.27
2018-05-21T01:04:58.363Z,95.27
2018-05-21T01:06:07.006Z,96.41
2018-05-21T01:07:15.648Z,96.7
2018-05-21T01:08:24.290Z,96.13
2018-05-21T01:09:33.212Z,95.94
2018-05-21T01:10:41.856Z,96.13
2018-05-21T01:11:50.501Z,95.84
2018-05-21T01:12:59.139Z,95.65
2018-05-21T01:14:07.789Z,95.65
2018-05-21T01:15:16.432Z,95.46
2018-05-21T01:16:25.341Z,95.65
2018-05-21T01:17:33.980Z,95.94
2018-05-21T01:18:42.625Z,95.56
2018-05-21T01:19:51.266Z,95.65
2018-05-21T01:20:59.912Z,95.56
2018-05-21T01:22:08.559Z,95.84
2018-05-21T01:23:17.466Z,95.65
2018-05-21T01:24:26.108Z,95.27
2018-05-21T01:25:34.756Z,95.84
2018-05-21T01:26:43.402Z,93.27
2018-05-21T01:27:52.040Z,94.51
2018-05-21T01:29:00.685Z,94.98
2018-05-21T01:30:09.326Z,94.6
2018-05-21T01:31:17.972Z,94.12
2018-05-21T01:32:26.876Z,94.03
2018-05-21T01:33:35.518Z,94.41
2018-05-21T01:34:44.161Z,94.6
2018-05-21T01:35:52.810Z,94.41
2018-05-21T01:37:01.447Z,94.22
2018-05-21T01:38:10.094Z,93.74
2018-05-21T01:39:18.735Z,92.03
2018-05-21T01:40:27.383Z,92.69
2018-05-21T01:41:36.023Z,91.78
2018-05-21T01:42:44.664Z,91.98
2018-05-21T01:43:53.309Z,92.46
2018-05-21T01:45:01.951Z,93.51
2018-05-21T01:46:10.597Z,94.17
2018-05-21T01:47:19.242Z,93.7
2018-05-21T01:48:27.886Z,93.88
2018-05-21T01:49:36.527Z,91.12
2018-05-21T01:50:45.174Z,91.21
2018-05-21T01:51:54.083Z,91.12
2018-05-21T01:53:02.727Z,91.98
2018-05-21T01:54:11.369Z,92.83
2018-05-21T01:55:20.282Z,93.6
2018-05-21T01:56:28.922Z,92.74
2018-05-21T01:57:37.575Z,93.22
2018-05-21T01:58:46.468Z,94.27
2018-05-21T01:59:55.112Z,94.46
2018-05-21T02:01:03.763Z,92.07
2018-05-21T02:02:12.411Z,90.93
2018-05-21T02:03:21.053Z,92.83
2018-05-21T02:04:29.691Z,93.22
2018-05-21T02:05:38.338Z,94.17
2018-05-21T02:06:47.245Z,93.51
2018-05-21T02:07:55.894Z,93.51
2018-05-21T02:09:04.528Z,93.7
2018-05-21T02:10:13.176Z,94.12
2018-05-21T02:11:21.817Z,93.7
2018-05-21T02:12:30.744Z,91.55
2018-05-21T02:13:39.379Z,91.88
2018-05-21T02:14:48.025Z,91.31
2018-05-21T02:15:56.665Z,91.21
2018-05-21T02:17:05.331Z,89.78
2018-05-21T02:18:14.236Z,89.12
2018-05-21T02:19:23.403Z,89.78
2018-05-21T02:20:32.046Z,88.54
2018-05-21T02:21:40.688Z,88.35
2018-05-21T02:22:49.339Z,90.64
2018-05-21T02:23:58.240Z,91.12
2018-05-21T02:25:06.890Z,91.31
2018-05-21T02:26:15.523Z,91.98
2018-05-21T02:27:24.176Z,91.69
2018-05-21T02:28:32.822Z,91.69
2018-05-21T02:29:41.760Z,91.98
2018-05-21T02:30:50.373Z,91.98
2018-05-21T02:31:59.562Z,91.78
2018-05-21T02:33:08.295Z,92.46
2018-05-21T02:34:16.882Z,92.93
2018-05-21T02:35:25.777Z,92.65
2018-05-21T02:36:34.424Z,92.55
2018-05-21T02:37:43.072Z,92.74
2018-05-21T02:38:51.720Z,93.12
2018-05-21T02:40:00.370Z,93.93
2018-05-21T02:41:09.005Z,90.73
2018-05-21T02:42:17.654Z,92.03
2018-05-21T02:43:26.292Z,92.98
2018-05-21T02:44:34.943Z,93.08
2018-05-21T02:45:43.576Z,93.31
2018-05-21T02:46:52.225Z,92.5
2018-05-21T02:48:00.864Z,92.03
2018-05-21T02:49:09.513Z,92.32
2018-05-21T02:50:18.146Z,92.5
2018-05-21T02:51:26.792Z,92.32
2018-05-21T02:52:35.435Z,90.12
2018-05-21T02:53:44.084Z,90.98
2018-05-21T02:54:53.263Z,91.21
2018-05-21T02:56:02.171Z,91.31
2018-05-21T02:57:11.091Z,91.55
2018-05-21T02:58:19.734Z,91.98
2018-05-21T02:59:28.368Z,91.5
2018-05-21T03:00:37.018Z,90.69
2018-05-21T03:01:45.757Z,89.07
2018-05-21T03:02:54.702Z,90.69
2018-05-21T03:04:03.579Z,89.78
2018-05-21T03:05:12.373Z,90.26
2018-05-21T03:06:21.012Z,88.45
2018-05-21T03:07:29.663Z,88.54
2018-05-21T03:08:38.561Z,89.78
2018-05-21T03:09:47.205Z,89.12
2018-05-21T03:10:55.847Z,88.92
2018-05-21T03:12:04.499Z,88.64
2018-05-21T03:13:13.142Z,88.73
2018-05-21T03:14:22.044Z,88.16
2018-05-21T03:15:30.682Z,88.35
2018-05-21T03:16:39.324Z,89.78
2018-05-21T03:17:47.975Z,90.07
2018-05-21T03:18:56.613Z,89.78
2018-05-21T03:20:05.532Z,89.59
2018-05-21T03:21:14.165Z,90.5
2018-05-21T03:22:22.820Z,91.31
2018-05-21T03:23:31.458Z,92.07
2018-05-21T03:24:40.385Z,90.69
2018-05-21T03:25:49.549Z,90.73
2018-05-21T03:26:58.195Z,92.03
2018-05-21T03:28:07.102Z,91.64
2018-05-21T03:29:16.009Z,91.74
2018-05-21T03:30:24.644Z,91.93
2018-05-21T03:31:34.101Z,92.5
2018-05-21T03:32:43.015Z,92.79
2018-05-21T03:33:51.658Z,92.98
2018-05-21T03:35:00.306Z,92.41
2018-05-21T03:36:08.942Z,92.22
2018-05-21T03:37:17.851Z,92.03
2018-05-21T03:38:26.487Z,92.5
2018-05-21T03:39:35.139Z,92.32
2018-05-21T03:40:43.778Z,92.32
2018-05-21T03:41:52.426Z,92.98
2018-05-21T03:43:01.065Z,93.46
2018-05-21T03:44:09.716Z,93.27
2018-05-21T03:45:18.615Z,92.98
2018-05-21T03:46:27.263Z,93.55
2018-05-21T03:47:35.904Z,93.46
2018-05-21T03:48:44.557Z,92.69
2018-05-21T03:49:53.197Z,92.79
2018-05-21T03:51:01.836Z,92.6
2018-05-21T03:52:10.742Z,93.36
2018-05-21T03:53:19.382Z,92.88
2018-05-21T03:54:28.038Z,92.69
2018-05-21T03:55:36.675Z,93.27
2018-05-21T03:56:45.322Z,93.46
2018-05-21T03:57:53.960Z,92.41
2018-05-21T03:59:02.608Z,93.08
2018-05-21T04:00:11.513Z,92.32
2018-05-21T04:01:20.155Z,91.83
2018-05-21T04:02:28.794Z,93.65
2018-05-21T04:03:37.440Z,92.98
2018-05-21T04:04:46.342Z,92.41
2018-05-21T04:05:54.997Z,92.03
2018-05-21T04:07:03.899Z,93.27
2018-05-21T04:08:12.543Z,92.5
2018-05-21T04:09:21.186Z,91.83
2018-05-21T04:10:29.832Z,92.69
2018-05-21T04:11:38.479Z,92.5
2018-05-21T04:12:47.116Z,93.08
2018-05-21T04:13:55.762Z,92.6
2018-05-21T04:15:04.407Z,92.69
2018-05-21T04:16:13.313Z,92.69
2018-05-21T04:17:21.953Z,92.79
2018-05-21T04:18:30.863Z,91.27
2018-05-21T04:19:39.507Z,91.83
2018-05-21T04:20:48.159Z,91.83
2018-05-21T04:21:56.794Z,92.22
2018-05-21T04:23:05.440Z,91.83
2018-05-21T04:24:14.078Z,91.93
2018-05-21T04:25:22.726Z,91.93
2018-05-21T04:26:31.366Z,92.5
2018-05-21T04:27:40.013Z,92.5
2018-05-21T04:28:48.653Z,92.88
2018-05-21T04:29:57.294Z,93.55
2018-05-21T04:31:06.212Z,92.69
2018-05-21T04:32:14.854Z,92.69
2018-05-21T04:33:23.770Z,93.65
2018-05-21T04:34:32.412Z,93.46
2018-05-21T04:35:41.064Z,93.65
2018-05-21T04:36:49.707Z,91.46
2018-05-21T04:37:58.356Z,92.07
2018-05-21T04:39:07.002Z,91.83
2018-05-21T04:40:16.173Z,92.17
2018-05-21T04:41:24.816Z,91.98
2018-05-21T04:42:33.461Z,92.07
2018-05-21T04:43:42.100Z,91.78
2018-05-21T04:44:50.746Z,91.69
2018-05-21T04:45:59.402Z,91.5
2018-05-21T04:47:08.310Z,92.26
2018-05-21T04:48:16.954Z,91.98
2018-05-21T04:49:25.591Z,92.07
2018-05-21T04:50:34.762Z,91.78
2018-05-21T04:51:43.405Z,92.46
2018-05-21T04:52:52.053Z,91.98
2018-05-21T04:54:00.693Z,92.83
2018-05-21T04:55:09.606Z,92.55
2018-05-21T04:56:18.246Z,92.65
2018-05-21T04:57:26.899Z,91.78
2018-05-21T04:58:35.537Z,91.98
2018-05-21T04:59:44.182Z,91.5
2018-05-21T05:00:52.825Z,91.5
2018-05-21T05:02:01.480Z,92.07
2018-05-21T05:03:10.121Z,92.74
2018-05-21T05:04:18.762Z,92.46
2018-05-21T05:05:27.412Z,91.93
2018-05-21T05:06:36.044Z,90.4
2018-05-21T05:07:44.698Z,90.21
2018-05-21T05:08:53.600Z,89.92
2018-05-21T05:10:02.246Z,89.92
2018-05-21T05:11:10.880Z,90.02
2018-05-21T05:12:19.531Z,89.45
2018-05-21T05:13:28.167Z,89.45
2018-05-21T05:14:36.817Z,90.02
2018-05-21T05:15:45.455Z,90.35
2018-05-21T05:16:54.105Z,90.06
2018-05-21T05:18:03.291Z,89.78
2018-05-21T05:19:11.939Z,89.78
2018-05-21T05:20:20.577Z,89.39
2018-05-21T05:21:29.491Z,89.01
2018-05-21T05:22:38.139Z,89.49
2018-05-21T05:23:46.790Z,89.11
2018-05-21T05:24:55.435Z,88.54
2018-05-21T05:26:04.340Z,86.91
2018-05-21T05:27:12.989Z,87.34
2018-05-21T05:28:21.631Z,87.53
2018-05-21T05:29:30.284Z,88.29
2018-05-21T05:30:38.919Z,87.24
2018-05-21T05:31:47.568Z,87.24
2018-05-21T05:32:56.210Z,87.53
2018-05-21T05:34:04.866Z,86.67
2018-05-21T05:35:13.500Z,87.24
2018-05-21T05:36:22.147Z,86.1
2018-05-21T05:37:30.789Z,86.04
2018-05-21T05:38:39.441Z,86.33
2018-05-21T05:39:48.084Z,86.33
2018-05-21T05:40:56.730Z,85.85
2018-05-21T05:42:05.433Z,85.75
2018-05-21T05:43:14.013Z,86.04
2018-05-21T05:44:22.667Z,84.99
2018-05-21T05:45:31.307Z,86.33
2018-05-21T05:46:39.955Z,84.89
2018-05-21T05:47:49.123Z,84.03
2018-05-21T05:48:57.777Z,84.27
2018-05-21T05:50:06.419Z,84.36
2018-05-21T05:51:15.068Z,83.12
2018-05-21T05:52:23.978Z,82.93
2018-05-21T05:53:32.628Z,83.03
2018-05-21T05:54:41.268Z,82.93
2018-05-21T05:55:49.915Z,82.54
2018-05-21T05:56:58.556Z,83.12
2018-05-21T05:58:07.203Z,83.22
2018-05-21T05:59:15.850Z,83.03
2018-05-21T06:00:24.497Z,82.3
2018-05-21T06:01:33.145Z,82.49
2018-05-21T06:02:41.785Z,82.4
2018-05-21T06:03:50.430Z,81.82
2018-05-21T06:04:59.074Z,82.01
2018-05-21T06:06:08.251Z,82.4
2018-05-21T06:07:16.894Z,82.49
2018-05-21T06:08:25.801Z,82.01
2018-05-21T06:09:34.449Z,82.4
2018-05-21T06:10:43.097Z,81.44
2018-05-21T06:11:51.738Z,81.73
2018-05-21T06:13:00.389Z,81.54
2018-05-21T06:14:09.031Z,80.77
2018-05-21T06:15:17.683Z,81.2
2018-05-21T06:16:26.332Z,79.95
2018-05-21T06:17:34.977Z,79.95
2018-05-21T06:18:43.620Z,79.37
2018-05-21T06:19:52.260Z,78.61
2018-05-21T06:21:00.911Z,78.61
2018-05-21T06:22:09.555Z,78.7
2018-05-21T06:23:18.197Z,78.89
2018-05-21T06:24:27.108Z,79.32
2018-05-21T06:25:35.758Z,79.32
2018-05-21T06:26:44.404Z,78.27
2018-05-21T06:27:53.051Z,78.27
2018-05-21T06:29:01.960Z,77.97
2018-05-21T06:30:10.610Z,78.27
2018-05-21T06:31:19.252Z,78.27
2018-05-21T06:32:27.900Z,78.17
2018-05-21T06:33:36.539Z,78.45
2018-05-21T06:34:45.188Z,78.07
2018-05-21T06:35:53.836Z,78.36
2018-05-21T06:37:02.483Z,78.45
2018-05-21T06:38:11.397Z,78.36
2018-05-21T06:39:20.038Z,78.27
2018-05-21T06:40:28.693Z,78.78
2018-05-21T06:41:37.331Z,78.59
2018-05-21T06:42:45.981Z,77.92
2018-05-21T06:43:54.624Z,77.53
2018-05-21T06:45:03.270Z,78.02
2018-05-21T06:46:11.915Z,78.11
2018-05-21T06:47:20.567Z,78.11
2018-05-21T06:48:29.210Z,78.59
2018-05-21T06:49:37.856Z,79.07
2018-05-21T06:50:46.507Z,78.3
2018-05-21T06:51:55.146Z,76.29
2018-05-21T06:53:03.796Z,75.85
2018-05-21T06:54:12.710Z,76.32
2018-05-21T06:55:21.361Z,76.62
2018-05-21T06:56:30.009Z,76.62
2018-05-21T06:57:38.650Z,76.71
2018-05-21T06:58:47.299Z,76.81
2018-05-21T06:59:55.951Z,76.23
2018-05-21T07:01:04.865Z,76.81
2018-05-21T07:02:13.507Z,77.09
2018-05-21T07:03:22.157Z,76.81
2018-05-21T07:04:30.802Z,77
2018-05-21T07:05:39.456Z,77.58
2018-05-21T07:06:48.106Z,77.04
2018-05-21T07:07:56.764Z,76.84
2018-05-21T07:09:05.775Z,76.94
2018-05-21T07:10:14.699Z,76.27
2018-05-21T07:11:23.343Z,75.6
2018-05-21T07:12:31.990Z,75.31
2018-05-21T07:13:40.636Z,75.31
2018-05-21T07:14:49.281Z,75.6
2018-05-21T07:15:57.940Z,75.31
2018-05-21T07:17:06.579Z,74.93
2018-05-21T07:18:15.331Z,74.93
2018-05-21T07:19:23.869Z,75.4
2018-05-21T07:20:32.517Z,74.54
2018-05-21T07:21:41.164Z,74.68
2018-05-21T07:22:49.813Z,74.96
2018-05-21T07:23:58.456Z,74.77
2018-05-21T07:25:07.112Z,74.68
2018-05-21T07:26:15.760Z,74.01
2018-05-21T07:27:24.417Z,73.91
2018-05-21T07:28:33.053Z,74.48
2018-05-21T07:29:41.703Z,74.19
2018-05-21T07:30:50.614Z,74.19
2018-05-21T07:31:59.263Z,74.77
2018-05-21T07:33:07.915Z,74.77
2018-05-21T07:34:16.828Z,74.77
2018-05-21T07:35:25.474Z,74.9
2018-05-21T07:36:34.123Z,74.23
2018-05-21T07:37:43.041Z,73.46
2018-05-21T07:38:51.720Z,72.89
2018-05-21T07:40:00.329Z,72.99
2018-05-21T07:41:08.975Z,72.5
2018-05-21T07:42:17.635Z,72.5
2018-05-21T07:43:26.272Z,71.93
2018-05-21T07:44:34.920Z,72.79
2018-05-21T07:45:43.565Z,72.79
2018-05-21T07:46:52.216Z,72.34
2018-05-21T07:48:00.862Z,72.25
2018-05-21T07:49:09.513Z,71.67
2018-05-21T07:50:18.422Z,71.48
2018-05-21T07:51:27.080Z,72.34
2018-05-21T07:52:35.724Z,71.77
2018-05-21T07:53:44.367Z,71.67
2018-05-21T07:54:53.026Z,72.25
2018-05-21T07:56:01.661Z,71.87
2018-05-21T07:57:10.319Z,71.96
2018-05-21T07:58:19.265Z,71.1
2018-05-21T07:59:27.879Z,70.43
2018-05-21T08:00:36.521Z,71.14
2018-05-21T08:01:45.175Z,71.39
2018-05-21T08:02:54.083Z,71.67
2018-05-21T08:04:02.733Z,71.61
2018-05-21T08:05:11.465Z,70.94
2018-05-21T08:06:20.386Z,71.33
2018-05-21T08:07:29.039Z,71.33
2018-05-21T08:08:37.687Z,70.37
2018-05-21T08:09:46.341Z,70.46
2018-05-21T08:10:54.981Z,71.14
2018-05-21T08:12:03.930Z,70.27
2018-05-21T08:13:12.574Z,70.27
2018-05-21T08:14:21.232Z,70.11
2018-05-21T08:15:29.873Z,69.63
2018-05-21T08:16:39.062Z,70.11
2018-05-21T08:17:47.707Z,70.4
2018-05-21T08:18:56.364Z,70.68
2018-05-21T08:20:05.002Z,70.59
2018-05-21T08:21:13.653Z,69.53
2018-05-21T08:22:22.300Z,69.92
2018-05-21T08:23:31.222Z,69.15
2018-05-21T08:24:39.868Z,69.82
2018-05-21T08:25:48.512Z,68.57
2018-05-21T08:26:57.163Z,68.9
2018-05-21T08:28:06.071Z,69.53
2018-05-21T08:29:14.724Z,68.57
2018-05-21T08:30:23.371Z,68.99
2018-05-21T08:31:32.024Z,68.7
2018-05-21T08:32:40.665Z,69.47
2018-05-21T08:33:49.323Z,69.47
2018-05-21T08:34:57.967Z,69.57
2018-05-21T08:36:06.622Z,70.24
2018-05-21T08:37:15.264Z,69.47
2018-05-21T08:38:23.927Z,69.67
2018-05-21T08:39:32.573Z,68.93
2018-05-21T08:40:41.226Z,68.26
2018-05-21T08:41:49.869Z,67.39
2018-05-21T08:42:58.526Z,67.77
2018-05-21T08:44:07.179Z,68.44
2018-05-21T08:45:15.837Z,67.97
2018-05-21T08:46:24.488Z,68.06
2018-05-21T08:47:33.138Z,68.16
2018-05-21T08:48:41.825Z,68.19
2018-05-21T08:49:50.813Z,66.85
2018-05-21T08:50:59.460Z,66.46
2018-05-21T08:52:08.112Z,65.88
2018-05-21T08:53:16.763Z,65.3
2018-05-21T08:54:25.418Z,64.92
2018-05-21T08:55:34.062Z,65.69
2018-05-21T08:56:42.718Z,65.78
2018-05-21T08:57:51.365Z,65.88
2018-05-21T08:59:00.017Z,65.69
2018-05-21T09:00:08.663Z,66.55
2018-05-21T09:01:17.839Z,64.92
2018-05-21T09:02:26.491Z,65.78
2018-05-21T09:03:35.147Z,66.85
2018-05-21T09:04:43.836Z,65.5
2018-05-21T09:05:52.703Z,65.11
2018-05-21T09:07:01.353Z,65.11
2018-05-21T09:08:10.002Z,63.98
2018-05-21T09:09:18.660Z,63.98
2018-05-21T09:10:27.309Z,63.79
2018-05-21T09:11:35.957Z,64.18
2018-05-21T09:12:44.606Z,64.76
2018-05-21T09:13:53.267Z,64.56
2018-05-21T09:15:02.189Z,64.95
2018-05-21T09:16:11.193Z,66.11
2018-05-21T09:17:19.843Z,63.89
2018-05-21T09:18:28.499Z,64.08
2018-05-21T09:19:37.145Z,63.12
2018-05-21T09:20:45.795Z,62.83
2018-05-21T09:21:54.449Z,63.02
2018-05-21T09:23:03.094Z,62.73
2018-05-21T09:24:11.747Z,63.41
2018-05-21T09:25:20.398Z,63.12
2018-05-21T09:26:29.048Z,63.6
2018-05-21T09:27:37.693Z,63.5
2018-05-21T09:28:46.348Z,63.6
2018-05-21T09:29:54.999Z,62.76
2018-05-21T09:31:03.650Z,62.83
2018-05-21T09:32:12.295Z,63.54
2018-05-21T09:33:20.952Z,63.34
2018-05-21T09:34:29.596Z,62.86
2018-05-21T09:35:38.517Z,62.18
2018-05-21T09:36:47.161Z,61.22
2018-05-21T09:37:55.813Z,61.22
2018-05-21T09:39:04.462Z,60.83
2018-05-21T09:40:13.114Z,61.61
2018-05-21T09:41:21.768Z,61.13
2018-05-21T09:42:30.415Z,61.61
2018-05-21T09:43:39.068Z,61.71
2018-05-21T09:44:47.719Z,62.7
2018-05-21T09:45:56.381Z,62.7
2018-05-21T09:47:05.019Z,62.79
2018-05-21T09:48:13.744Z,61.06
2018-05-21T09:49:22.318Z,61.06
2018-05-21T09:50:31.507Z,60.48
2018-05-21T09:51:40.151Z,60.48
2018-05-21T09:52:48.807Z,59.42
2018-05-21T09:53:57.458Z,60.38
2018-05-21T09:55:06.117Z,60.8
2018-05-21T09:56:14.767Z,59.64
2018-05-21T09:57:23.412Z,57.81
2018-05-21T09:58:32.327Z,55.68
2018-05-21T09:59:40.974Z,55.4
2018-05-21T10:00:49.635Z,55.23
2018-05-21T10:01:58.279Z,55.62
2018-05-21T10:03:06.934Z,55.52
2018-05-21T10:04:15.580Z,53.97
2018-05-21T10:05:24.240Z,53.59
2018-05-21T10:06:32.892Z,54.55
2018-05-21T10:07:41.546Z,55.42
2018-05-21T10:08:50.721Z,55.23
2018-05-21T10:09:59.653Z,54.46
2018-05-21T10:11:08.301Z,55.04
2018-05-21T10:12:16.954Z,55.81
2018-05-21T10:13:25.604Z,54.27
2018-05-21T10:14:34.259Z,54.55
2018-05-21T10:15:42.917Z,54.75
2018-05-21T10:16:51.574Z,54.58
2018-05-21T10:18:00.228Z,53.61
2018-05-21T10:19:08.870Z,53.81
2018-05-21T10:20:17.523Z,53.81
2018-05-21T10:21:26.436Z,54.49
2018-05-21T10:22:35.096Z,53.91
2018-05-21T10:23:43.740Z,52.75
2018-05-21T10:24:52.401Z,52.65
2018-05-21T10:26:01.358Z,53.33
2018-05-21T10:27:10.360Z,52.36
2018-05-21T10:28:19.004Z,52.26
2018-05-21T10:29:27.984Z,52.84
2018-05-21T10:30:36.633Z,52.26
2018-05-21T10:31:45.568Z,52.45
2018-05-21T10:32:54.220Z,52.36
2018-05-21T10:34:03.140Z,51.29
2018-05-21T10:35:11.791Z,52.17
2018-05-21T10:36:20.441Z,51.68
2018-05-21T10:37:29.102Z,50.13
2018-05-21T10:38:37.748Z,50.43
2018-05-21T10:39:46.405Z,49.75
2018-05-21T10:40:55.047Z,50.52
2018-05-21T10:42:03.704Z,50.81
2018-05-21T10:43:12.358Z,51.2
2018-05-21T10:44:21.011Z,50.43
2018-05-21T10:45:29.666Z,50.23
2018-05-21T10:46:38.312Z,51.01
2018-05-21T10:47:47.237Z,50.45
2018-05-21T10:48:55.884Z,49.29
2018-05-21T10:50:04.542Z,49.97
2018-05-21T10:51:13.192Z,49.49
2018-05-21T10:52:21.841Z,48.81
2018-05-21T10:53:30.492Z,49.97
2018-05-21T10:54:39.147Z,50.18
2018-05-21T10:55:47.802Z,49.39
2018-05-21T10:56:56.447Z,47.96
2018-05-21T10:58:05.104Z,47.38
2018-05-21T10:59:13.749Z,48.52
2018-05-21T11:00:22.416Z,49.12
2018-05-21T11:01:31.327Z,48.74
2018-05-21T11:02:39.983Z,48.35
2018-05-21T11:03:48.926Z,48.54
2018-05-21T11:04:57.565Z,48.83
2018-05-21T11:06:06.478Z,47.77
2018-05-21T11:07:15.131Z,46.12
2018-05-21T11:08:23.774Z,45.54
2018-05-21T11:09:32.428Z,46.3
2018-05-21T11:10:41.084Z,46.12
2018-05-21T11:11:49.739Z,46.32
2018-05-21T11:12:58.395Z,47
2018-05-21T11:14:07.036Z,47
2018-05-21T11:15:15.692Z,47.09
2018-05-21T11:16:24.339Z,47.58
2018-05-21T11:17:33.001Z,47.86
2018-05-21T11:18:41.648Z,48.64
2018-05-21T11:19:50.303Z,48.64
2018-05-21T11:20:59.223Z,48.44
2018-05-21T11:22:07.886Z,48.35
2018-05-21T11:23:16.528Z,47.6
2018-05-21T11:24:25.181Z,48.27
2018-05-21T11:25:33.830Z,47.41
2018-05-21T11:26:42.491Z,46.63
2018-05-21T11:27:51.143Z,45.57
2018-05-21T11:28:59.789Z,46.34
2018-05-21T11:30:08.437Z,46.34
2018-05-21T11:31:17.097Z,47.5
2018-05-21T11:32:26.023Z,47.89
2018-05-21T11:33:34.679Z,47.62
2018-05-21T11:34:43.336Z,47.21
2018-05-21T11:35:51.978Z,45.49
2018-05-21T11:37:00.643Z,46.25
2018-05-21T11:38:09.555Z,46.34
2018-05-21T11:39:18.214Z,46.73
2018-05-21T11:40:26.853Z,47.31
2018-05-21T11:41:35.516Z,47.52
2018-05-21T11:42:44.167Z,47.52
2018-05-21T11:43:52.821Z,45.78
2018-05-21T11:45:01.741Z,45.3
2018-05-21T11:46:10.395Z,43.75
2018-05-21T11:47:19.049Z,45.2
2018-05-21T11:48:27.709Z,45.3
2018-05-21T11:49:36.363Z,44.02
2018-05-21T11:50:45.123Z,43.54
2018-05-21T11:51:53.663Z,42.96
2018-05-21T11:53:02.315Z,43.15
2018-05-21T11:54:10.975Z,43.54
2018-05-21T11:55:19.628Z,43.63
2018-05-21T11:56:28.276Z,43.95
2018-05-21T11:57:36.930Z,43.75
2018-05-21T11:58:45.858Z,43.95
2018-05-21T11:59:54.513Z,43.07
2018-05-21T12:01:03.163Z,43.17
2018-05-21T12:02:11.814Z,42.88
2018-05-21T12:03:20.473Z,43.85
2018-05-21T12:04:29.387Z,44.33
2018-05-21T12:05:38.039Z,44.91
2018-05-21T12:06:46.958Z,43.85
2018-05-21T12:07:55.609Z,43.75
2018-05-21T12:09:04.270Z,43.65
2018-05-21T12:10:12.922Z,43.95
2018-05-21T12:11:21.579Z,44.43
2018-05-21T12:12:30.222Z,43.95
2018-05-21T12:13:38.933Z,43.85
2018-05-21T12:14:47.538Z,43.95
2018-05-21T12:15:56.191Z,44.93
2018-05-21T12:17:04.840Z,46.39
2018-05-21T12:18:13.768Z,46.87
2018-05-21T12:19:22.437Z,46.19
2018-05-21T12:20:31.449Z,46.77
2018-05-21T12:21:40.367Z,46.58
2018-05-21T12:22:49.024Z,46.58
2018-05-21T12:23:57.945Z,46.97
2018-05-21T12:25:06.600Z,45.51
2018-05-21T12:26:15.526Z,45.03
2018-05-21T12:27:24.170Z,44.64
2018-05-21T12:28:33.084Z,45.51
2018-05-21T12:29:41.737Z,46.48
2018-05-21T12:30:50.392Z,45.71
2018-05-21T12:31:59.043Z,46
2018-05-21T12:33:07.957Z,45.61
2018-05-21T12:34:16.869Z,44.26
2018-05-21T12:35:25.528Z,44.93
2018-05-21T12:36:34.177Z,43.77
2018-05-21T12:37:42.833Z,44.16
2018-05-21T12:38:51.483Z,44.16
2018-05-21T12:40:00.145Z,43.87
2018-05-21T12:41:09.061Z,43.09
2018-05-21T12:42:17.713Z,44.16
2018-05-21T12:43:26.362Z,44.35
2018-05-21T12:44:35.014Z,45.22
2018-05-21T12:45:43.946Z,44.84
2018-05-21T12:46:52.676Z,44.74
2018-05-21T12:48:01.700Z,43.09
2018-05-21T12:49:10.609Z,43.21
2018-05-21T12:50:19.276Z,43.31
2018-05-21T12:51:27.923Z,42.44
2018-05-21T12:52:36.581Z,42.54
2018-05-21T12:53:45.225Z,43
2018-05-21T12:54:53.885Z,43.87
2018-05-21T12:56:02.538Z,44.35
2018-05-21T12:57:11.471Z,43.58
2018-05-21T12:58:20.114Z,43
2018-05-21T12:59:28.770Z,43
2018-05-21T13:00:37.431Z,42.9
2018-05-21T13:01:46.087Z,43.96
2018-05-21T13:02:55.014Z,43.68
2018-05-21T13:04:03.925Z,44.84
2018-05-21T13:05:12.606Z,45.03
2018-05-21T13:06:21.228Z,44.76
2018-05-21T13:07:30.156Z,44.27
2018-05-21T13:08:38.800Z,44.18
2018-05-21T13:09:47.458Z,44.06
2018-05-21T13:10:56.376Z,43.87
2018-05-21T13:12:05.039Z,44.45
2018-05-21T13:13:13.682Z,44.16
2018-05-21T13:14:22.339Z,44.93
2018-05-21T13:15:30.994Z,45.22
2018-05-21T13:16:39.651Z,45.61
2018-05-21T13:17:48.308Z,45.22
2018-05-21T13:18:56.951Z,45.51
2018-05-21T13:20:05.603Z,45.42
2018-05-21T13:21:14.255Z,45.51
2018-05-21T13:22:22.919Z,45.42
2018-05-21T13:23:31.568Z,44.84
2018-05-21T13:24:40.756Z,43.19
2018-05-21T13:25:49.399Z,43.38
2018-05-21T13:26:58.062Z,43.48
2018-05-21T13:28:06.712Z,43.68
2018-05-21T13:29:15.370Z,43
2018-05-21T13:30:24.015Z,43.38
2018-05-21T13:31:32.677Z,42.03
2018-05-21T13:32:41.330Z,41.25
2018-05-21T13:33:49.985Z,40.67
2018-05-21T13:34:58.629Z,40.58
2018-05-21T13:36:07.285Z,40.28
2018-05-21T13:37:15.943Z,40.48
2018-05-21T13:38:24.598Z,40.67
2018-05-21T13:39:33.255Z,41.16
2018-05-21T13:40:41.898Z,41.93
2018-05-21T13:41:50.559Z,41.83
2018-05-21T13:42:59.206Z,41.74
2018-05-21T13:44:07.864Z,41.45
2018-05-21T13:45:16.512Z,42.13
2018-05-21T13:46:25.167Z,42.34
2018-05-21T13:47:33.820Z,41.16
2018-05-21T13:48:42.480Z,40.19
2018-05-21T13:49:51.128Z,40.96
2018-05-21T13:50:59.787Z,41.64
2018-05-21T13:52:08.439Z,41.76
2018-05-21T13:53:17.405Z,41.86
2018-05-21T13:54:26.325Z,40.38
2018-05-21T13:55:35.242Z,40.48
2018-05-21T13:56:43.897Z,39.7
2018-05-21T13:57:52.547Z,41.06
2018-05-21T13:59:01.316Z,40.86
2018-05-21T14:00:09.859Z,40.58
2018-05-21T14:01:18.516Z,40.58
2018-05-21T14:02:27.164Z,39.9
2018-05-21T14:03:36.090Z,39.8
2018-05-21T14:04:44.743Z,40.96
2018-05-21T14:05:53.396Z,41.06
2018-05-21T14:07:02.043Z,41.45
2018-05-21T14:08:10.704Z,40.96
2018-05-21T14:09:19.366Z,40.19
2018-05-21T14:10:28.026Z,41.16
2018-05-21T14:11:36.935Z,40.58
2018-05-21T14:12:45.591Z,38.93
2018-05-21T14:13:54.244Z,39.03
2018-05-21T14:15:02.899Z,38.93
2018-05-21T14:16:11.562Z,39.22
2018-05-21T14:17:20.242Z,39.12
2018-05-21T14:18:28.856Z,38.64
2018-05-21T14:19:37.511Z,38.73
2018-05-21T14:20:46.454Z,39.8
2018-05-21T14:21:55.083Z,40.38
2018-05-21T14:23:03.737Z,40.38
2018-05-21T14:24:12.389Z,38.83
2018-05-21T14:25:21.426Z,39.03
2018-05-21T14:26:30.245Z,39.22
2018-05-21T14:27:39.166Z,38.54
2018-05-21T14:28:47.819Z,38.83
2018-05-21T14:29:56.477Z,38.93
2018-05-21T14:31:05.139Z,39.22
2018-05-21T14:32:13.790Z,39.32
2018-05-21T14:33:22.448Z,39.9
2018-05-21T14:34:31.096Z,40.48
2018-05-21T14:35:39.754Z,39.7
2018-05-21T14:36:48.409Z,39.51
2018-05-21T14:37:57.065Z,40.17
2018-05-21T14:39:05.713Z,40.86
2018-05-21T14:40:14.367Z,40.09
2018-05-21T14:41:23.021Z,41.25
2018-05-21T14:42:31.938Z,41.93
2018-05-21T14:43:40.601Z,41.64
2018-05-21T14:44:49.251Z,41.55
2018-05-21T14:45:57.906Z,42.03
2018-05-21T14:47:06.835Z,42.61
2018-05-21T14:48:15.496Z,43.09